Ville De Bordeaux — FZCE — position and weather

sailwx.info

Track history (hours):
 
Tides and Currents Weather Stations Pressure Air Temp Water Temp Dewpoint Dewpoint Depression Visibility Wind Speed Wind Dir Waves Ship Positions

Ville De Bordeaux

Last reported at 2016-May-03 08:33 UTC. Time now 2016-May-03 08:39 UTC.
Position N 36°43' W 000°36'.

Length 150 m; beam 24 m.

Type: Ship. MMSI: 228084000.

Date/timePositionNaut miles runAvg speedWind from/ knotsBaromVisibWave heightAir tempDewpointWater temp
2016-May-03 08:33N 36°43' W 000°36'10 9.7
2016-May-03 07:34N 36°40' W 000°48'10 9.8
2016-May-03 06:33N 36°38' W 000°59'1210.1
2016-May-03 05:24N 36°35' W 001°13'19915.1
2016-May-02 16:18N 35°59' W 005°15'23412.2
2016-May-01 21:09N 37°25' W 009°47'915.1
2016-May-01 20:33N 37°34' W 009°48'1515.5
2016-May-01 19:33N 37°49' W 009°52'1615.7
2016-May-01 18:33N 38°04' W 009°57'1515.5
2016-May-01 17:33N 38°19' W 010°02'1615.9
2016-May-01 16:33N 38°35' W 010°06'60413.7
2016-Apr-29 20:32N 47°01' W 002°37'1413.9
2016-Apr-29 19:33N 47°08' W 002°20'1110.8
2016-Apr-29 18:33N 47°17' W 002°10'0 0.4
2016-Apr-29 17:33N 47°17' W 002°10'0 0.0
2016-Apr-29 16:30N 47°17' W 002°10'0 0.0
2016-Apr-29 15:33N 47°17' W 002°10'0 0.0
2016-Apr-29 14:33N 47°17' W 002°10'0 0.0
2016-Apr-29 13:30N 47°17' W 002°10'0 0.0
2016-Apr-29 12:30N 47°17' W 002°10'0 0.0
2016-Apr-29 11:33N 47°17' W 002°10'0 0.0
2016-Apr-29 10:33N 47°17' W 002°10'0 0.0
2016-Apr-29 09:30N 47°17' W 002°10'0 0.0
2016-Apr-29 08:33N 47°17' W 002°10'0 0.0
2016-Apr-29 07:33N 47°17' W 002°10'6 6.2
2016-Apr-29 06:33N 47°13' W 002°17'1110.5
2016-Apr-29 05:33N 47°04' W 002°26'1110.6
2016-Apr-29 04:33N 46°59' W 002°39'31 7.9
2016-Apr-29 00:33N 46°32' W 002°18'  
2016-Apr-26 04:22N 38°46' W 009°52'1315.7
2016-Apr-26 03:33N 38°33' W 009°50'2015.7
2016-Apr-26 02:17N 38°14' W 009°44'3315.4
2016-Apr-26 00:09N 37°42' W 009°35'915.4
2016-Apr-25 23:32N 37°33' W 009°32'1515.5
2016-Apr-25 22:33N 37°18' W 009°27'1815.3
2016-Apr-25 21:22N 37°00' W 009°22'1214.3
2016-Apr-25 20:32N 36°49' W 009°15'186 8.9
2016-Apr-24 23:32N 35°58' W 005°34'5 0.5
2016-Apr-24 13:33N 35°59' W 005°28'33816.1
2016-Apr-23 16:33N 37°12' E 001°23'1717.0
2016-Apr-23 15:33N 37°16' E 001°43'19 9.5
2016-Apr-23 13:33N 37°22' E 002°07'  
Track history (hours):
 
Tides and Currents Weather Stations Pressure Air Temp Water Temp Dewpoint Dewpoint Depression Visibility Wind Speed Wind Dir Waves Ship Positions

Ville De Bordeaux

Last reported at 2016-May-03 08:33 UTC. Time now 2016-May-03 08:39 UTC.
Position N 36°43' W 000°36'.

Length 150 m; beam 24 m.

Type: Ship. MMSI: 228084000.

Date/timePositionNaut miles runAvg speedWind from/ knotsBaromVisibWave heightAir tempDewpointWater temp
2016-May-03 08:33N 36°43' W 000°36'10 9.7
2016-May-03 07:34N 36°40' W 000°48'10 9.8
2016-May-03 06:33N 36°38' W 000°59'1210.1
2016-May-03 05:24N 36°35' W 001°13'19915.1
2016-May-02 16:18N 35°59' W 005°15'23412.2
2016-May-01 21:09N 37°25' W 009°47'915.1
2016-May-01 20:33N 37°34' W 009°48'1515.5
2016-May-01 19:33N 37°49' W 009°52'1615.7
2016-May-01 18:33N 38°04' W 009°57'1515.5
2016-May-01 17:33N 38°19' W 010°02'1615.9
2016-May-01 16:33N 38°35' W 010°06'60413.7
2016-Apr-29 20:32N 47°01' W 002°37'1413.9
2016-Apr-29 19:33N 47°08' W 002°20'1110.8
2016-Apr-29 18:33N 47°17' W 002°10'0 0.4
2016-Apr-29 17:33N 47°17' W 002°10'0 0.0
2016-Apr-29 16:30N 47°17' W 002°10'0 0.0
2016-Apr-29 15:33N 47°17' W 002°10'0 0.0
2016-Apr-29 14:33N 47°17' W 002°10'0 0.0
2016-Apr-29 13:30N 47°17' W 002°10'0 0.0
2016-Apr-29 12:30N 47°17' W 002°10'0 0.0
2016-Apr-29 11:33N 47°17' W 002°10'0 0.0
2016-Apr-29 10:33N 47°17' W 002°10'0 0.0
2016-Apr-29 09:30N 47°17' W 002°10'0 0.0
2016-Apr-29 08:33N 47°17' W 002°10'0 0.0
2016-Apr-29 07:33N 47°17' W 002°10'6 6.2
2016-Apr-29 06:33N 47°13' W 002°17'1110.5
2016-Apr-29 05:33N 47°04' W 002°26'1110.6
2016-Apr-29 04:33N 46°59' W 002°39'31 7.9
2016-Apr-29 00:33N 46°32' W 002°18'  
2016-Apr-26 04:22N 38°46' W 009°52'1315.7
2016-Apr-26 03:33N 38°33' W 009°50'2015.7
2016-Apr-26 02:17N 38°14' W 009°44'3315.4
2016-Apr-26 00:09N 37°42' W 009°35'915.4
2016-Apr-25 23:32N 37°33' W 009°32'1515.5
2016-Apr-25 22:33N 37°18' W 009°27'1815.3
2016-Apr-25 21:22N 37°00' W 009°22'1214.3
2016-Apr-25 20:32N 36°49' W 009°15'186 8.9
2016-Apr-24 23:32N 35°58' W 005°34'5 0.5
2016-Apr-24 13:33N 35°59' W 005°28'33816.1
2016-Apr-23 16:33N 37°12' E 001°23'1717.0
2016-Apr-23 15:33N 37°16' E 001°43'19 9.5
2016-Apr-23 13:33N 37°22' E 002°07'  

Dump ship's entire track history